Terminal Aerodrome Forecast
Issued by NWS Sterling, VA

Current Version | Previous Version | Graphics & Text | Print | Product List | Glossary On
Versions: 1 2 3 4 5 6 7 8 9 10 11 12 13 14 15 16 17 18 19 20
000
FTUS41 KLWX 281700
TAFIAD
TAF
KIAD 281720Z 2818/2924 33012KT P6SM FEW050
     FM282300 34007KT P6SM FEW050
     FM290100 35004KT P6SM SKC
     FM291700 11004KT P6SM FEW250=

USA.gov is the U.S. government's official web portal to all federal, state and local government web resources and services.